Terminal Aerodrome Forecast
Issued by NWS

Home | Current Version | Previous Version | Text Only | Print | Product List | Glossary On
Versions: 1 2 3 4 5 6 7 8 9 10 11 12 13 14 15
000
FTUS46 KSGX 310500
TAFSNA
TAF
KSNA 310520Z 3106/0106 VRB04KT P6SM SCT020 BKN200
     FM310900 VRB03KT P6SM OVC017
     FM311500 VRB04KT P6SM OVC022
     FM312100 22007KT P6SM BKN025
     FM010200 20009KT P6SM VCSH BKN025 BKN045=

USA.gov is the U.S. government's official web portal to all federal, state and local government web resources and services.